createdAt,value
2018-04-24T00:01:34.940Z,11.05
2018-04-24T00:04:02.579Z,11.01
2018-04-24T00:06:30.197Z,10.97
2018-04-24T00:08:57.808Z,10.95
2018-04-24T00:11:25.452Z,10.94
2018-04-24T00:13:53.368Z,10.94
2018-04-24T00:16:20.966Z,10.94
2018-04-24T00:18:48.635Z,10.94
2018-04-24T00:21:16.357Z,10.90
2018-04-24T00:23:43.924Z,10.93
2018-04-24T00:26:11.600Z,10.92
2018-04-24T00:28:39.221Z,10.92
2018-04-24T00:31:06.825Z,10.92
2018-04-24T00:33:34.793Z,10.88
2018-04-24T00:36:02.418Z,10.85
2018-04-24T00:38:30.528Z,10.84
2018-04-24T00:40:58.154Z,10.82
2018-04-24T00:43:25.749Z,10.81
2018-04-24T00:45:53.431Z,10.84
2018-04-24T00:48:21.189Z,10.88
2018-04-24T00:50:48.927Z,10.86
2018-04-24T00:56:19.310Z,10.91
2018-04-24T00:58:46.980Z,10.90
2018-04-24T01:01:14.638Z,10.93
2018-04-24T01:03:42.258Z,10.96
2018-04-24T01:06:09.840Z,10.99
2018-04-24T01:08:37.525Z,11.00
2018-04-24T01:11:05.111Z,10.99
2018-04-24T01:13:32.756Z,11.00
2018-04-24T01:16:00.363Z,10.97
2018-04-24T01:18:28.007Z,10.95
2018-04-24T01:20:55.688Z,10.93
2018-04-24T01:23:23.414Z,10.95
2018-04-24T01:25:51.003Z,10.99
2018-04-24T01:28:18.642Z,11.03
2018-04-24T01:30:46.623Z,11.03
2018-04-24T01:33:14.283Z,10.98
2018-04-24T01:35:41.867Z,10.96
2018-04-24T01:38:10.079Z,11.00
2018-04-24T01:40:37.926Z,11.01
2018-04-24T01:43:05.599Z,11.03
2018-04-24T01:45:33.230Z,11.01
2018-04-24T01:48:00.797Z,11.00
2018-04-24T01:50:28.379Z,11.03
2018-04-24T01:52:55.975Z,11.00
2018-04-24T01:55:23.616Z,10.97
2018-04-24T01:57:51.238Z,10.99
2018-04-24T02:00:18.963Z,11.01
2018-04-24T02:02:46.560Z,10.97
2018-04-24T02:05:14.402Z,10.99
2018-04-24T02:07:42.264Z,11.01
2018-04-24T02:10:09.940Z,10.95
2018-04-24T02:12:37.528Z,10.93
2018-04-24T02:15:05.183Z,10.91
2018-04-24T02:17:32.945Z,10.88
2018-04-24T02:20:00.619Z,10.89
2018-04-24T02:22:28.441Z,10.89
2018-04-24T02:24:56.157Z,10.86
2018-04-24T02:27:23.833Z,10.86
2018-04-24T02:29:51.493Z,10.83
2018-04-24T02:32:19.102Z,10.85
2018-04-24T02:34:47.032Z,10.83
2018-04-24T02:37:14.693Z,10.82
2018-04-24T02:39:42.434Z,10.82
2018-04-24T02:42:10.140Z,10.79
2018-04-24T02:44:37.733Z,10.78
2018-04-24T02:47:05.393Z,10.81
2018-04-24T02:49:33.060Z,10.83
2018-04-24T02:52:00.715Z,10.80
2018-04-24T02:54:28.403Z,10.82
2018-04-24T02:56:56.019Z,10.84
2018-04-24T02:59:23.728Z,10.85
2018-04-24T03:01:51.341Z,10.88
2018-04-24T03:04:18.932Z,10.91
2018-04-24T03:06:46.669Z,10.89
2018-04-24T03:09:14.381Z,10.87
2018-04-24T03:11:42.541Z,10.89
2018-04-24T03:14:10.152Z,10.90
2018-04-24T03:16:38.106Z,10.92
2018-04-24T03:19:06.176Z,10.92
2018-04-24T03:21:33.769Z,10.92
2018-04-24T03:24:01.366Z,10.95
2018-04-24T03:26:28.986Z,10.94
2018-04-24T03:28:56.685Z,10.97
2018-04-24T03:31:24.678Z,10.98
2018-04-24T03:33:52.483Z,10.98
2018-04-24T03:36:20.118Z,10.95
2018-04-24T03:38:47.688Z,10.95
2018-04-24T03:41:15.381Z,10.96
2018-04-24T03:43:42.992Z,10.95
2018-04-24T03:46:10.649Z,10.95
2018-04-24T03:48:38.263Z,10.95
2018-04-24T03:51:05.901Z,10.96
2018-04-24T03:53:33.523Z,10.93
2018-04-24T03:56:01.556Z,10.93
2018-04-24T03:58:29.199Z,10.92
2018-04-24T04:00:56.766Z,10.94
2018-04-24T04:03:24.379Z,10.95
2018-04-24T04:05:52.056Z,10.96
2018-04-24T04:08:19.928Z,10.96
2018-04-24T04:10:47.529Z,10.97
2018-04-24T04:13:15.139Z,10.94
2018-04-24T04:15:42.986Z,10.92
2018-04-24T04:18:22.455Z,10.91
2018-04-24T04:21:02.142Z,10.91
2018-04-24T04:23:41.486Z,10.92
2018-04-24T04:26:09.128Z,10.88
2018-04-24T04:28:36.734Z,10.86
2018-04-24T04:31:04.466Z,10.84
2018-04-24T04:33:32.068Z,10.85
2018-04-24T04:36:00.092Z,10.87
2018-04-24T04:38:27.755Z,10.89
2018-04-24T04:40:55.422Z,10.91
2018-04-24T04:43:23.152Z,10.94
2018-04-24T04:45:50.739Z,10.94
2018-04-24T04:48:18.461Z,10.98
2018-04-24T04:50:46.216Z,10.99
2018-04-24T04:53:13.800Z,10.99
2018-04-24T04:55:41.602Z,10.95
2018-04-24T04:58:10.461Z,10.96
2018-04-24T05:00:38.116Z,10.98
2018-04-24T05:03:06.044Z,10.96
2018-04-24T05:05:33.747Z,10.96
2018-04-24T05:08:01.551Z,10.99
2018-04-24T05:10:29.356Z,11.01
2018-04-24T05:12:56.923Z,11.03
2018-04-24T05:15:24.648Z,11.03
2018-04-24T05:17:53.237Z,11.03
2018-04-24T05:20:20.851Z,11.02
2018-04-24T05:22:48.972Z,11.02
2018-04-24T05:25:16.643Z,11.03
2018-04-24T05:27:44.296Z,11.06
2018-04-24T05:30:11.983Z,11.03
2018-04-24T05:32:39.645Z,11.06
2018-04-24T05:35:07.253Z,11.11
2018-04-24T05:37:35.080Z,11.08
2018-04-24T05:40:02.964Z,11.09
2018-04-24T05:42:30.635Z,11.09
2018-04-24T05:44:58.291Z,11.12
2018-04-24T05:47:26.582Z,11.13
2018-04-24T05:49:54.493Z,11.14
2018-04-24T05:52:22.219Z,11.14
2018-04-24T05:54:49.816Z,11.11
2018-04-24T05:57:17.718Z,11.13
2018-04-24T05:59:45.400Z,11.18
2018-04-24T06:02:13.568Z,11.21
2018-04-24T06:04:41.485Z,11.19
2018-04-24T06:07:09.136Z,11.15
2018-04-24T06:09:36.814Z,11.19
2018-04-24T06:12:04.475Z,11.22
2018-04-24T06:14:32.144Z,11.25
2018-04-24T06:16:59.762Z,11.26
2018-04-24T06:19:27.443Z,11.26
2018-04-24T06:21:55.087Z,11.27
2018-04-24T06:24:23.131Z,11.29
2018-04-24T06:26:50.941Z,11.23
2018-04-24T06:29:18.997Z,11.25
2018-04-24T06:31:46.593Z,11.30
2018-04-24T06:34:14.233Z,11.27
2018-04-24T06:36:42.453Z,11.28
2018-04-24T06:39:10.027Z,11.31
2018-04-24T06:41:37.768Z,11.31
2018-04-24T06:44:05.458Z,11.34
2018-04-24T06:46:33.053Z,11.35
2018-04-24T06:49:01.108Z,11.37
2018-04-24T06:51:28.981Z,11.39
2018-04-24T06:53:57.038Z,11.42
2018-04-24T06:56:24.671Z,11.43
2018-04-24T06:58:52.361Z,11.47
2018-04-24T07:01:20.337Z,11.44
2018-04-24T07:03:47.962Z,11.50
2018-04-24T07:06:15.539Z,11.56
2018-04-24T07:08:43.212Z,11.53
2018-04-24T07:11:10.899Z,11.57
2018-04-24T07:13:38.573Z,11.60
2018-04-24T07:16:06.185Z,11.60
2018-04-24T07:18:33.783Z,11.62
2018-04-24T07:21:01.405Z,11.64
2018-04-24T07:23:28.983Z,11.67
2018-04-24T07:25:56.669Z,11.66
2018-04-24T07:28:24.356Z,11.68
2018-04-24T07:30:51.953Z,11.71
2018-04-24T07:33:20.237Z,11.72
2018-04-24T07:35:47.997Z,11.77
2018-04-24T07:38:15.581Z,11.83
2018-04-24T07:40:43.355Z,11.85
2018-04-24T07:43:10.977Z,11.85
2018-04-24T07:45:38.744Z,11.91
2018-04-24T07:48:06.952Z,11.92
2018-04-24T07:50:34.588Z,11.94
2018-04-24T07:53:02.489Z,11.95
2018-04-24T07:55:30.135Z,11.96
2018-04-24T07:57:57.904Z,11.99
2018-04-24T08:00:25.577Z,12.05
2018-04-24T08:02:53.176Z,12.05
2018-04-24T08:05:20.917Z,12.06
2018-04-24T08:07:48.657Z,12.08
2018-04-24T08:10:16.244Z,12.14
2018-04-24T08:12:43.827Z,12.15
2018-04-24T08:15:11.438Z,12.16
2018-04-24T08:17:39.135Z,12.17
2018-04-24T08:20:06.754Z,12.19
2018-04-24T08:22:40.256Z,12.22
2018-04-24T08:25:08.538Z,12.25
2018-04-24T08:27:36.127Z,12.25
2018-04-24T08:30:03.872Z,12.27
2018-04-24T08:32:31.503Z,12.32
2018-04-24T08:34:59.109Z,12.35
2018-04-24T08:37:26.787Z,12.34
2018-04-24T08:39:54.506Z,12.37
2018-04-24T08:42:22.164Z,12.43
2018-04-24T08:44:49.835Z,12.50
2018-04-24T08:47:17.557Z,12.56
2018-04-24T08:49:45.133Z,12.61
2018-04-24T08:52:13.015Z,12.64
2018-04-24T08:54:40.697Z,12.71
2018-04-24T08:57:08.359Z,12.73
2018-04-24T08:59:35.938Z,12.77
2018-04-24T09:02:03.675Z,12.77
2018-04-24T09:04:31.323Z,12.76
2018-04-24T09:06:59.417Z,12.79
2018-04-24T09:09:27.078Z,12.77
2018-04-24T09:11:55.049Z,12.78
2018-04-24T09:14:23.011Z,12.77
2018-04-24T09:16:50.601Z,12.76
2018-04-24T09:19:18.290Z,12.74
2018-04-24T09:21:45.949Z,12.75
2018-04-24T09:24:13.526Z,12.77
2018-04-24T09:26:41.224Z,12.77
2018-04-24T09:29:08.944Z,12.76
2018-04-24T09:31:42.344Z,12.70
2018-04-24T09:34:09.998Z,12.73
2018-04-24T09:36:37.650Z,12.72
2018-04-24T09:39:07.326Z,12.70
2018-04-24T09:41:35.176Z,12.73
2018-04-24T09:44:02.915Z,12.79
2018-04-24T09:46:30.577Z,12.77
2018-04-24T09:48:58.309Z,12.76
2018-04-24T09:51:26.294Z,12.76
2018-04-24T09:53:53.852Z,12.75
2018-04-24T09:56:21.795Z,12.77
2018-04-24T09:58:49.366Z,12.76
2018-04-24T10:01:17.013Z,12.75
2018-04-24T10:03:44.833Z,12.77
2018-04-24T10:06:12.490Z,12.77
2018-04-24T10:08:40.158Z,12.81
2018-04-24T10:11:07.749Z,12.79
2018-04-24T10:13:35.743Z,12.80
2018-04-24T10:16:03.348Z,12.83
2018-04-24T10:18:30.961Z,12.88
2018-04-24T10:20:58.900Z,12.91
2018-04-24T10:23:26.690Z,12.91
2018-04-24T10:25:54.376Z,12.92
2018-04-24T10:28:21.996Z,12.96
2018-04-24T10:30:49.852Z,12.96
2018-04-24T10:33:17.815Z,12.99
2018-04-24T10:35:45.518Z,12.97
2018-04-24T10:38:13.189Z,12.97
2018-04-24T10:40:40.849Z,13.03
2018-04-24T10:43:08.684Z,13.07
2018-04-24T10:45:36.308Z,13.12
2018-04-24T10:48:04.046Z,13.15
2018-04-24T10:50:31.674Z,13.22
2018-04-24T10:52:59.648Z,13.35
2018-04-24T10:55:27.321Z,13.39
2018-04-24T10:57:54.920Z,13.51
2018-04-24T11:00:22.550Z,13.50
2018-04-24T11:02:50.382Z,13.54
2018-04-24T11:05:18.068Z,13.63
2018-04-24T11:07:45.672Z,13.71
2018-04-24T11:10:13.343Z,13.74
2018-04-24T11:12:41.347Z,13.76
2018-04-24T11:15:08.980Z,13.83
2018-04-24T11:17:36.642Z,13.90
2018-04-24T11:20:04.316Z,14.00
2018-04-24T11:22:32.148Z,14.09
2018-04-24T11:25:00.759Z,14.13
2018-04-24T11:27:28.473Z,14.18
2018-04-24T11:29:56.178Z,14.19
2018-04-24T11:32:24.058Z,14.22
2018-04-24T11:34:51.663Z,14.24
2018-04-24T11:37:19.252Z,14.29
2018-04-24T11:39:47.384Z,14.30
2018-04-24T11:42:14.982Z,14.34
2018-04-24T11:44:42.591Z,14.40
2018-04-24T11:47:10.332Z,14.42
2018-04-24T11:49:38.036Z,14.40
2018-04-24T11:52:05.709Z,14.38
2018-04-24T11:54:33.498Z,14.41
2018-04-24T11:57:01.158Z,14.41
2018-04-24T11:59:28.953Z,14.38
2018-04-24T12:01:56.576Z,14.38
2018-04-24T12:04:24.202Z,14.42
2018-04-24T12:06:52.298Z,14.51
2018-04-24T12:09:20.267Z,14.64
2018-04-24T12:11:48.017Z,14.77
2018-04-24T12:14:15.998Z,14.91
2018-04-24T12:16:44.183Z,15.03
2018-04-24T12:19:12.706Z,15.09
2018-04-24T12:21:40.585Z,15.14
2018-04-24T12:24:08.311Z,15.10
2018-04-24T12:26:36.279Z,15.09
2018-04-24T12:29:03.874Z,15.07
2018-04-24T12:31:31.484Z,15.03
2018-04-24T12:33:59.420Z,15.02
2018-04-24T12:36:27.081Z,14.98
2018-04-24T12:38:54.790Z,14.99
2018-04-24T12:41:22.365Z,14.95
2018-04-24T12:43:50.282Z,14.95
2018-04-24T12:46:17.952Z,14.99
2018-04-24T12:48:45.691Z,15.04
2018-04-24T12:51:13.515Z,15.13
2018-04-24T12:53:41.151Z,15.14
2018-04-24T12:56:08.833Z,15.20
2018-04-24T12:58:36.485Z,15.31
2018-04-24T13:01:04.140Z,15.40
2018-04-24T13:03:31.795Z,15.40
2018-04-24T13:05:59.421Z,15.47
2018-04-24T13:08:27.071Z,15.52
2018-04-24T13:10:54.715Z,15.56
2018-04-24T13:13:22.316Z,15.68
2018-04-24T13:15:50.245Z,15.80
2018-04-24T13:18:17.828Z,15.92
2018-04-24T13:20:45.410Z,16.10
2018-04-24T13:23:13.410Z,16.42
2018-04-24T13:25:41.084Z,16.87
2018-04-24T13:28:08.778Z,17.23
2018-04-24T13:30:36.450Z,17.59
2018-04-24T13:33:04.240Z,17.89
2018-04-24T13:35:31.920Z,18.08
2018-04-24T13:37:59.504Z,18.10
2018-04-24T13:40:27.116Z,18.12
2018-04-24T13:42:54.852Z,18.05
2018-04-24T13:45:22.776Z,17.95
2018-04-24T13:47:50.359Z,17.83
2018-04-24T13:50:18.050Z,17.75
2018-04-24T13:52:45.744Z,17.56
2018-04-24T13:55:13.416Z,17.52
2018-04-24T13:57:41.086Z,17.54
2018-04-24T14:00:09.041Z,17.47
2018-04-24T14:02:36.912Z,17.38
2018-04-24T14:05:04.513Z,17.16
2018-04-24T14:07:32.205Z,17.13
2018-04-24T14:09:59.838Z,17.07
2018-04-24T14:12:27.705Z,17.05
2018-04-24T14:14:55.631Z,16.89
2018-04-24T14:17:23.365Z,16.80
2018-04-24T14:19:51.674Z,16.77
2018-04-24T14:22:19.324Z,16.67
2018-04-24T14:24:46.916Z,16.56
2018-04-24T14:27:14.933Z,16.53
2018-04-24T14:29:42.570Z,16.47
2018-04-24T14:32:10.153Z,16.47
2018-04-24T14:34:37.876Z,16.42
2018-04-24T14:37:05.485Z,16.45
2018-04-24T14:39:33.315Z,16.43
2018-04-24T14:42:00.935Z,16.45
2018-04-24T14:44:28.553Z,16.46
2018-04-24T14:46:56.140Z,16.45
2018-04-24T14:49:24.141Z,16.37
2018-04-24T14:51:51.743Z,16.34
2018-04-24T14:54:19.764Z,16.32
2018-04-24T14:56:47.425Z,16.19
2018-04-24T14:59:15.067Z,16.15
2018-04-24T15:01:42.675Z,16.08
2018-04-24T15:04:10.270Z,15.97
2018-04-24T15:06:43.404Z,15.93
2018-04-24T15:09:11.010Z,15.94
2018-04-24T15:11:38.734Z,15.95
2018-04-24T15:14:06.335Z,15.89
2018-04-24T15:16:33.942Z,15.93
2018-04-24T15:19:01.916Z,16.03
2018-04-24T15:21:29.516Z,16.11
2018-04-24T15:23:57.194Z,16.16
2018-04-24T15:26:24.910Z,16.15
2018-04-24T15:28:52.523Z,16.11
2018-04-24T15:31:20.181Z,16.14
2018-04-24T15:33:48.227Z,16.17
2018-04-24T15:36:15.805Z,16.12
2018-04-24T15:38:43.399Z,16.09
2018-04-24T15:41:11.084Z,16.05
2018-04-24T15:43:38.894Z,16.04
2018-04-24T15:46:06.581Z,16.03
2018-04-24T15:48:34.317Z,16.05
2018-04-24T15:51:01.964Z,16.08
2018-04-24T15:53:29.804Z,16.03
2018-04-24T15:55:57.405Z,15.93
2018-04-24T15:58:25.012Z,15.93
2018-04-24T16:00:52.736Z,15.92
2018-04-24T16:03:20.654Z,15.92
2018-04-24T16:05:48.448Z,15.87
2018-04-24T16:08:16.094Z,15.90
2018-04-24T16:10:43.683Z,15.86
2018-04-24T16:13:11.314Z,15.85
2018-04-24T16:15:38.983Z,15.82
2018-04-24T16:18:07.143Z,15.78
2018-04-24T16:20:34.797Z,15.75
2018-04-24T16:23:02.538Z,15.77
2018-04-24T16:25:30.220Z,15.73
2018-04-24T16:27:57.813Z,15.74
2018-04-24T16:30:25.441Z,15.64
2018-04-24T16:32:53.026Z,15.61
2018-04-24T16:35:20.879Z,15.62
2018-04-24T16:37:48.490Z,15.62
2018-04-24T16:40:16.071Z,15.63
2018-04-24T16:42:43.674Z,15.58
2018-04-24T16:45:11.545Z,15.55
2018-04-24T16:47:39.227Z,15.52
2018-04-24T16:50:06.918Z,15.50
2018-04-24T16:52:34.592Z,15.48
2018-04-24T16:55:02.210Z,15.50
2018-04-24T16:57:30.147Z,15.50
2018-04-24T16:59:57.764Z,15.50
2018-04-24T17:02:25.813Z,15.40
2018-04-24T17:04:53.400Z,15.36
2018-04-24T17:07:20.993Z,15.38
2018-04-24T17:09:48.633Z,15.41
2018-04-24T17:12:16.322Z,15.38
2018-04-24T17:14:43.914Z,15.37
2018-04-24T17:17:11.533Z,15.35
2018-04-24T17:19:41.021Z,15.35
2018-04-24T17:22:08.705Z,15.34
2018-04-24T17:24:36.311Z,15.33
2018-04-24T17:27:03.922Z,15.30
2018-04-24T17:29:31.611Z,15.27
2018-04-24T17:31:59.640Z,15.21
2018-04-24T17:34:27.563Z,15.19
2018-04-24T17:36:55.158Z,15.14
2018-04-24T17:39:22.789Z,15.12
2018-04-24T17:41:50.871Z,15.11
2018-04-24T17:44:18.499Z,15.07
2018-04-24T17:46:46.082Z,15.03
2018-04-24T17:49:13.749Z,14.98
2018-04-24T17:51:41.464Z,14.95
2018-04-24T17:54:09.050Z,14.94
2018-04-24T17:56:36.704Z,14.94
2018-04-24T17:59:04.997Z,14.93
2018-04-24T18:01:32.629Z,14.93
2018-04-24T18:04:00.205Z,14.95
2018-04-24T18:06:28.279Z,14.97
2018-04-24T18:08:55.934Z,14.95
2018-04-24T18:11:23.767Z,14.91
2018-04-24T18:13:51.454Z,14.86
2018-04-24T18:16:19.030Z,14.76
2018-04-24T18:18:46.901Z,14.75
2018-04-24T18:21:14.617Z,14.74
2018-04-24T18:23:43.492Z,14.74
2018-04-24T18:26:11.133Z,14.74
2018-04-24T18:28:38.786Z,14.73
2018-04-24T18:31:06.418Z,14.70
2018-04-24T18:33:34.352Z,14.68
2018-04-24T18:36:01.951Z,14.69
2018-04-24T18:38:29.541Z,14.67
2018-04-24T18:40:57.231Z,14.67
2018-04-24T18:43:25.367Z,14.67
2018-04-24T18:45:52.955Z,14.69
2018-04-24T18:48:20.572Z,14.71
2018-04-24T18:50:48.410Z,14.74
2018-04-24T18:53:16.331Z,14.75
2018-04-24T18:55:44.011Z,14.75
2018-04-24T18:58:12.026Z,14.75
2018-04-24T19:00:40.048Z,14.75
2018-04-24T19:03:07.639Z,14.75
2018-04-24T19:05:36.247Z,14.76
2018-04-24T19:08:04.074Z,14.75
2018-04-24T19:10:31.745Z,14.75
2018-04-24T19:12:59.401Z,14.74
2018-04-24T19:15:27.043Z,14.74
2018-04-24T19:17:54.648Z,14.72
2018-04-24T19:20:22.265Z,14.71
2018-04-24T19:22:50.397Z,14.70
2018-04-24T19:25:23.817Z,14.70
2018-04-24T19:27:51.501Z,14.72
2018-04-24T19:30:19.175Z,14.71
2018-04-24T19:32:46.795Z,14.70
2018-04-24T19:35:14.780Z,14.69
2018-04-24T19:37:42.357Z,14.68
2018-04-24T19:40:15.527Z,14.67
2018-04-24T19:42:43.223Z,14.65
2018-04-24T19:45:10.817Z,14.65
2018-04-24T19:47:38.931Z,14.61
2018-04-24T19:50:12.445Z,14.57
2018-04-24T19:52:40.519Z,14.53
2018-04-24T19:58:04.010Z,14.44
2018-04-24T20:00:31.597Z,14.36
2018-04-24T20:02:59.183Z,14.33
2018-04-24T20:05:26.892Z,14.30
2018-04-24T20:07:54.877Z,14.29
2018-04-24T20:10:22.608Z,14.28
2018-04-24T20:12:50.236Z,14.28
2018-04-24T20:15:18.125Z,14.28
2018-04-24T20:17:46.124Z,14.25
2018-04-24T20:20:13.843Z,14.24
2018-04-24T20:22:41.451Z,14.21
2018-04-24T20:25:09.286Z,14.12
2018-04-24T20:27:36.909Z,14.02
2018-04-24T20:30:04.577Z,13.99
2018-04-24T20:32:32.165Z,13.96
2018-04-24T20:35:00.046Z,13.89
2018-04-24T20:37:27.726Z,13.84
2018-04-24T20:39:55.343Z,13.80
2018-04-24T20:42:23.007Z,13.74
2018-04-24T20:44:50.954Z,13.70
2018-04-24T20:47:18.595Z,13.66
2018-04-24T20:49:46.237Z,13.62
2018-04-24T20:52:13.970Z,13.60
2018-04-24T20:54:41.643Z,13.62
2018-04-24T20:57:09.256Z,13.60
2018-04-24T20:59:36.861Z,13.57
2018-04-24T21:02:05.035Z,13.56
2018-04-24T21:04:33.131Z,13.60
2018-04-24T21:07:00.783Z,13.60
2018-04-24T21:09:28.456Z,13.58
2018-04-24T21:11:56.471Z,13.58
2018-04-24T21:14:24.064Z,13.57
2018-04-24T21:16:51.758Z,13.58
2018-04-24T21:19:19.485Z,13.57
2018-04-24T21:21:47.068Z,13.60
2018-04-24T21:24:14.703Z,13.58
2018-04-24T21:26:42.320Z,13.58
2018-04-24T21:29:10.134Z,13.56
2018-04-24T21:31:37.812Z,13.58
2018-04-24T21:34:05.456Z,13.59
2018-04-24T21:36:33.597Z,13.58
2018-04-24T21:39:01.183Z,13.56
2018-04-24T21:41:29.076Z,13.55
2018-04-24T21:43:57.112Z,13.51
2018-04-24T21:46:24.705Z,13.51
2018-04-24T21:48:52.368Z,13.53
2018-04-24T21:51:20.362Z,13.54
2018-04-24T21:53:48.007Z,13.52
2018-04-24T21:56:15.590Z,13.53
2018-04-24T21:58:43.651Z,13.52
2018-04-24T22:01:11.725Z,13.49
2018-04-24T22:03:39.393Z,13.51
2018-04-24T22:06:09.381Z,13.50
2018-04-24T22:08:37.087Z,13.49
2018-04-24T22:11:04.895Z,13.48
2018-04-24T22:13:33.830Z,13.47
2018-04-24T22:16:02.588Z,13.47
2018-04-24T22:18:31.083Z,13.48
2018-04-24T22:20:58.947Z,13.49
2018-04-24T22:23:27.727Z,13.47
2018-04-24T22:25:55.700Z,13.48
2018-04-24T22:28:23.367Z,13.48
2018-04-24T22:30:51.037Z,13.48
2018-04-24T22:33:18.913Z,13.49
2018-04-24T22:35:46.591Z,13.51
2018-04-24T22:38:14.190Z,13.49
2018-04-24T22:40:41.867Z,13.49
2018-04-24T22:43:09.651Z,13.46
2018-04-24T22:45:37.305Z,13.46
2018-04-24T22:48:05.062Z,13.48
2018-04-24T22:50:32.675Z,13.47
2018-04-24T22:53:00.545Z,13.45
2018-04-24T22:55:28.204Z,13.45
2018-04-24T22:57:55.864Z,13.47
2018-04-24T23:00:23.546Z,13.48
2018-04-24T23:02:51.160Z,13.47
2018-04-24T23:05:18.855Z,13.49
2018-04-24T23:07:46.579Z,13.52
2018-04-24T23:10:13.697Z,13.54
2018-04-24T23:12:53.102Z,13.55
2018-04-24T23:15:32.538Z,13.56
2018-04-24T23:18:12.149Z,13.58
2018-04-24T23:20:39.633Z,13.59
2018-04-24T23:23:07.349Z,13.63
2018-04-24T23:25:34.945Z,13.67
2018-04-24T23:28:02.596Z,13.68
2018-04-24T23:30:30.216Z,13.70
2018-04-24T23:32:58.247Z,13.71
2018-04-24T23:35:25.933Z,13.72
2018-04-24T23:37:53.856Z,13.77
2018-04-24T23:40:21.465Z,13.77
2018-04-24T23:42:49.118Z,13.76
2018-04-24T23:45:16.775Z,13.78
2018-04-24T23:47:44.388Z,13.81
2018-04-24T23:50:12.112Z,13.79
2018-04-24T23:52:39.836Z,13.80
2018-04-24T23:55:07.511Z,13.80
2018-04-24T23:57:35.132Z,13.77
